createdAt,value
2018-03-07T00:00:49.389Z,981
2018-03-07T00:02:02.947Z,981.05
2018-03-07T00:03:17.132Z,981.05
2018-03-07T00:04:31.194Z,981.07
2018-03-07T00:05:45.236Z,981.03
2018-03-07T00:06:59.559Z,981.01
2018-03-07T00:08:14.210Z,981.02
2018-03-07T00:09:28.866Z,981.06
2018-03-07T00:10:42.710Z,981.09
2018-03-07T00:11:56.772Z,981.09
2018-03-07T00:13:11.054Z,981.1
2018-03-07T00:14:24.866Z,981.1
2018-03-07T00:15:38.862Z,981.11
2018-03-07T00:16:53.168Z,981.11
2018-03-07T00:18:07.716Z,981.12
2018-03-07T00:19:22.013Z,981.13
2018-03-07T00:20:35.351Z,981.15
2018-03-07T00:21:49.891Z,981.14
2018-03-07T00:23:03.992Z,981.08
2018-03-07T00:24:18.081Z,981.13
2018-03-07T00:25:32.181Z,981.13
2018-03-07T00:26:46.272Z,981.15
2018-03-07T00:28:00.323Z,981.12
2018-03-07T00:29:15.171Z,981.1
2018-03-07T00:30:29.016Z,981.12
2018-03-07T00:31:43.103Z,981.1
2018-03-07T00:32:57.192Z,981.15
2018-03-07T00:34:11.965Z,981.16
2018-03-07T00:35:26.114Z,981.17
2018-03-07T00:36:40.536Z,981.21
2018-03-07T00:37:54.261Z,981.2
2018-03-07T00:39:08.096Z,981.22
2018-03-07T00:40:21.913Z,981.18
2018-03-07T00:41:36.688Z,981.18
2018-03-07T00:42:50.250Z,981.19
2018-03-07T00:44:04.303Z,981.18
2018-03-07T00:45:18.094Z,981.11
2018-03-07T00:46:32.423Z,981.16
2018-03-07T00:47:46.608Z,981.16
2018-03-07T00:57:56.482Z,981.17
2018-03-07T00:59:13.330Z,981.16
2018-03-07T01:00:29.837Z,981.14
2018-03-07T01:01:46.039Z,981.11
2018-03-07T01:03:04.327Z,981.13
2018-03-07T01:04:19.920Z,981.14
2018-03-07T01:05:35.342Z,981.13
2018-03-07T01:06:51.942Z,981.11
2018-03-07T01:08:07.402Z,981.15
2018-03-07T01:09:23.772Z,981.15
2018-03-07T01:10:37.931Z,981.15
2018-03-07T01:11:52.945Z,981.15
2018-03-07T01:13:08.311Z,981.16
2018-03-07T01:14:22.958Z,981.17
2018-03-07T01:15:37.599Z,981.21
2018-03-07T01:16:52.519Z,981.15
2018-03-07T01:18:06.965Z,981.17
2018-03-07T01:19:22.168Z,981.15
2018-03-07T01:20:36.304Z,981.2
2018-03-07T01:21:51.901Z,981.17
2018-03-07T01:23:07.163Z,981.15
2018-03-07T01:24:21.542Z,981.11
2018-03-07T01:25:36.192Z,981.13
2018-03-07T01:26:50.855Z,981.14
2018-03-07T01:28:05.328Z,981.19
2018-03-07T01:29:20.236Z,981.19
2018-03-07T01:30:34.099Z,981.15
2018-03-07T01:31:48.207Z,981.19
2018-03-07T01:33:02.196Z,981.18
2018-03-07T01:34:16.875Z,981.16
2018-03-07T01:35:31.298Z,981.2
2018-03-07T01:36:45.696Z,981.21
2018-03-07T01:37:59.697Z,981.2
2018-03-07T01:39:13.808Z,981.21
2018-03-07T01:40:28.278Z,981.25
2018-03-07T01:41:42.655Z,981.22
2018-03-07T01:42:58.040Z,981.24
2018-03-07T01:44:12.413Z,981.21
2018-03-07T01:45:26.779Z,981.22
2018-03-07T01:46:41.460Z,981.21
2018-03-07T01:47:55.878Z,981.2
2018-03-07T01:49:10.076Z,981.24
2018-03-07T01:50:24.443Z,981.17
2018-03-07T01:51:39.038Z,981.23
2018-03-07T01:52:54.556Z,981.19
2018-03-07T01:54:08.882Z,981.18
2018-03-07T01:55:23.722Z,981.19
2018-03-07T01:56:37.311Z,981.22
2018-03-07T01:57:51.844Z,981.22
2018-03-07T01:59:07.288Z,981.27
2018-03-07T02:00:21.693Z,981.28
2018-03-07T02:01:35.814Z,981.28
2018-03-07T02:02:50.664Z,981.27
2018-03-07T02:04:05.655Z,981.28
2018-03-07T02:05:21.078Z,981.3
2018-03-07T02:06:35.985Z,981.29
2018-03-07T02:07:50.629Z,981.24
2018-03-07T02:09:05.073Z,981.26
2018-03-07T02:10:19.220Z,981.28
2018-03-07T02:11:34.628Z,981.33
2018-03-07T02:12:49.550Z,981.31
2018-03-07T02:14:03.992Z,981.32
2018-03-07T02:15:18.825Z,981.35
2018-03-07T02:16:33.490Z,981.35
2018-03-07T02:17:48.452Z,981.36
2018-03-07T02:19:02.165Z,981.35
2018-03-07T02:20:16.532Z,981.4
2018-03-07T02:21:31.717Z,981.39
2018-03-07T02:22:46.409Z,981.38
2018-03-07T02:24:00.518Z,981.4
2018-03-07T02:25:15.295Z,981.36
2018-03-07T02:26:29.426Z,981.41
2018-03-07T02:27:44.367Z,981.44
2018-03-07T02:28:59.038Z,981.42
2018-03-07T02:30:13.845Z,981.42
2018-03-07T02:31:28.499Z,981.42
2018-03-07T02:32:42.470Z,981.45
2018-03-07T02:33:57.161Z,981.44
2018-03-07T02:35:11.436Z,981.48
2018-03-07T02:36:26.418Z,981.42
2018-03-07T02:37:40.541Z,981.43
2018-03-07T02:38:55.259Z,981.49
2018-03-07T02:40:09.771Z,981.52
2018-03-07T02:41:24.241Z,981.44
2018-03-07T02:42:38.673Z,981.43
2018-03-07T02:43:53.098Z,981.45
2018-03-07T02:45:07.506Z,981.46
2018-03-07T02:46:22.266Z,981.46
2018-03-07T02:47:37.207Z,981.43
2018-03-07T02:48:52.897Z,981.44
2018-03-07T02:50:07.826Z,981.38
2018-03-07T02:51:22.511Z,981.47
2018-03-07T02:52:36.657Z,981.46
2018-03-07T02:53:51.794Z,981.44
2018-03-07T02:55:07.128Z,981.46
2018-03-07T02:56:22.034Z,981.5
2018-03-07T02:57:36.703Z,981.49
2018-03-07T02:58:51.841Z,981.49
2018-03-07T03:00:06.650Z,981.5
2018-03-07T03:01:21.573Z,981.52
2018-03-07T03:02:35.420Z,981.47
2018-03-07T03:03:49.846Z,981.42
2018-03-07T03:05:03.705Z,981.52
2018-03-07T03:06:18.302Z,981.52
2018-03-07T03:07:33.008Z,981.53
2018-03-07T03:08:47.914Z,981.56
2018-03-07T03:10:02.798Z,981.56
2018-03-07T03:11:17.116Z,981.57
2018-03-07T03:12:32.154Z,981.56
2018-03-07T03:13:47.583Z,981.56
2018-03-07T03:15:02.492Z,981.55
2018-03-07T03:16:16.890Z,981.59
2018-03-07T03:17:31.021Z,981.58
2018-03-07T03:18:46.209Z,981.6
2018-03-07T03:20:00.630Z,981.62
2018-03-07T03:21:15.002Z,981.64
2018-03-07T03:22:29.329Z,981.67
2018-03-07T03:23:43.727Z,981.7
2018-03-07T03:24:58.414Z,981.67
2018-03-07T03:26:13.582Z,981.72
2018-03-07T03:27:27.678Z,981.73
2018-03-07T03:28:42.565Z,981.74
2018-03-07T03:29:57.193Z,981.73
2018-03-07T03:31:11.706Z,981.74
2018-03-07T03:32:26.688Z,981.75
2018-03-07T03:33:41.605Z,981.78
2018-03-07T03:34:55.487Z,981.77
2018-03-07T03:36:10.480Z,981.79
2018-03-07T03:37:25.069Z,981.82
2018-03-07T03:38:40.288Z,981.78
2018-03-07T03:39:54.938Z,981.8
2018-03-07T03:41:09.345Z,981.81
2018-03-07T03:42:24.190Z,981.8
2018-03-07T03:43:39.095Z,981.83
2018-03-07T03:44:53.756Z,981.84
2018-03-07T03:46:07.903Z,981.85
2018-03-07T03:47:22.705Z,981.9
2018-03-07T03:48:37.366Z,981.85
2018-03-07T03:49:51.747Z,981.9
2018-03-07T03:51:05.874Z,981.9
2018-03-07T03:52:20.106Z,981.89
2018-03-07T03:53:35.464Z,981.92
2018-03-07T03:54:49.833Z,981.89
2018-03-07T03:56:04.500Z,981.93
2018-03-07T03:57:19.285Z,981.92
2018-03-07T03:58:33.932Z,981.94
2018-03-07T03:59:48.059Z,981.96
2018-03-07T04:01:02.978Z,981.93
2018-03-07T04:02:17.505Z,981.97
2018-03-07T04:03:33.045Z,981.97
2018-03-07T04:04:46.881Z,981.99
2018-03-07T04:06:01.797Z,982.05
2018-03-07T04:07:16.601Z,982.05
2018-03-07T04:08:31.028Z,982.02
2018-03-07T04:09:46.269Z,982.05
2018-03-07T04:11:00.682Z,982.06
2018-03-07T04:12:14.980Z,982.06
2018-03-07T04:13:29.401Z,982.07
2018-03-07T04:14:44.332Z,982.08
2018-03-07T04:15:59.285Z,982.09
2018-03-07T04:17:14.202Z,982.09
2018-03-07T04:18:28.871Z,982.12
2018-03-07T04:19:43.785Z,982.15
2018-03-07T04:20:57.929Z,982.13
2018-03-07T04:22:13.056Z,982.14
2018-03-07T04:23:28.163Z,982.18
2018-03-07T04:24:42.268Z,982.2
2018-03-07T04:26:14.344Z,982.16
2018-03-07T04:27:29.573Z,982.21
2018-03-07T04:28:43.698Z,982.22
2018-03-07T04:29:58.204Z,982.25
2018-03-07T04:31:12.327Z,982.29
2018-03-07T04:32:26.738Z,982.3
2018-03-07T04:33:42.067Z,982.3
2018-03-07T04:34:57.152Z,982.35
2018-03-07T04:36:11.815Z,982.33
2018-03-07T04:37:26.733Z,982.34
2018-03-07T04:38:41.799Z,982.33
2018-03-07T04:39:56.820Z,982.36
2018-03-07T04:41:11.210Z,982.34
2018-03-07T04:42:25.601Z,982.32
2018-03-07T04:43:40.337Z,982.31
2018-03-07T04:44:55.033Z,982.26
2018-03-07T04:46:09.704Z,982.31
2018-03-07T04:47:24.378Z,982.34
2018-03-07T04:48:38.888Z,982.27
2018-03-07T04:49:53.830Z,982.27
2018-03-07T04:51:08.757Z,982.31
2018-03-07T04:52:23.213Z,982.31
2018-03-07T04:53:38.011Z,982.34
2018-03-07T04:54:52.450Z,982.34
2018-03-07T04:56:06.575Z,982.34
2018-03-07T04:57:21.500Z,982.29
2018-03-07T04:58:59.253Z,982.27
2018-03-07T05:00:13.375Z,982.33
2018-03-07T05:01:27.793Z,982.34
2018-03-07T05:02:42.134Z,982.27
2018-03-07T05:03:57.046Z,982.29
2018-03-07T05:05:12.074Z,982.27
2018-03-07T05:06:26.986Z,982.29
2018-03-07T05:07:41.452Z,982.31
2018-03-07T05:08:55.828Z,982.32
2018-03-07T05:10:10.216Z,982.32
2018-03-07T05:11:25.180Z,982.32
2018-03-07T05:12:39.547Z,982.3
2018-03-07T05:13:54.470Z,982.32
2018-03-07T05:15:09.721Z,982.34
2018-03-07T05:16:23.660Z,982.32
2018-03-07T05:17:38.103Z,982.33
2018-03-07T05:18:52.829Z,982.34
2018-03-07T05:20:07.200Z,982.34
2018-03-07T05:21:21.350Z,982.38
2018-03-07T05:22:36.318Z,982.45
2018-03-07T05:23:50.783Z,982.48
2018-03-07T05:25:04.617Z,982.49
2018-03-07T05:26:18.836Z,982.48
2018-03-07T05:27:32.966Z,982.52
2018-03-07T05:28:47.561Z,982.55
2018-03-07T05:30:02.255Z,982.58
2018-03-07T05:31:54.031Z,982.54
2018-03-07T05:33:08.598Z,982.56
2018-03-07T05:34:22.755Z,982.55
2018-03-07T05:35:36.622Z,982.57
2018-03-07T05:36:50.724Z,982.57
2018-03-07T05:38:04.653Z,982.57
2018-03-07T05:39:19.828Z,982.55
2018-03-07T05:40:33.943Z,982.61
2018-03-07T05:41:48.852Z,982.59
2018-03-07T05:43:02.971Z,982.68
2018-03-07T05:44:18.099Z,982.67
2018-03-07T05:45:32.540Z,982.67
2018-03-07T05:46:47.919Z,982.74
2018-03-07T05:48:02.367Z,982.79
2018-03-07T05:49:16.492Z,982.8
2018-03-07T05:50:31.882Z,982.78
2018-03-07T05:51:47.148Z,982.77
2018-03-07T05:53:01.823Z,982.75
2018-03-07T05:54:16.617Z,982.74
2018-03-07T05:55:31.278Z,982.73
2018-03-07T05:56:45.656Z,982.8
2018-03-07T05:58:00.624Z,982.78
2018-03-07T05:59:15.358Z,982.8
2018-03-07T06:00:29.752Z,982.86
2018-03-07T06:01:44.172Z,982.83
2018-03-07T06:02:59.016Z,982.83
2018-03-07T06:04:14.134Z,982.87
2018-03-07T06:05:28.569Z,982.85
2018-03-07T06:06:43.234Z,982.87
2018-03-07T06:07:57.954Z,982.91
2018-03-07T06:09:12.798Z,982.96
2018-03-07T06:10:27.500Z,982.97
2018-03-07T06:11:41.923Z,982.96
2018-03-07T06:12:56.894Z,982.94
2018-03-07T06:14:11.620Z,982.98
2018-03-07T06:15:26.324Z,983.03
2018-03-07T06:16:40.514Z,983.12
2018-03-07T06:17:54.902Z,983.13
2018-03-07T06:19:09.308Z,983.09
2018-03-07T06:20:23.792Z,983.2
2018-03-07T06:21:38.214Z,983.25
2018-03-07T06:22:53.440Z,983.24
2018-03-07T06:24:07.583Z,983.21
2018-03-07T06:25:22.211Z,983.2
2018-03-07T06:26:36.873Z,983.17
2018-03-07T06:27:51.534Z,983.19
2018-03-07T06:29:05.974Z,983.2
2018-03-07T06:30:21.005Z,983.2
2018-03-07T06:31:34.852Z,983.21
2018-03-07T06:32:49.281Z,983.26
2018-03-07T06:34:03.796Z,983.25
2018-03-07T06:35:18.624Z,983.23
2018-03-07T06:36:33.567Z,983.29
2018-03-07T06:37:48.163Z,983.37
2018-03-07T06:39:02.563Z,983.4
2018-03-07T06:40:18.782Z,983.45
2018-03-07T06:41:34.025Z,983.47
2018-03-07T06:42:48.415Z,983.58
2018-03-07T06:44:03.291Z,983.56
2018-03-07T06:45:18.085Z,983.53
2018-03-07T06:46:32.772Z,983.59
2018-03-07T06:47:47.755Z,983.57
2018-03-07T06:49:01.876Z,983.56
2018-03-07T06:50:17.131Z,983.52
2018-03-07T06:51:32.682Z,983.52
2018-03-07T06:52:46.941Z,983.59
2018-03-07T06:54:02.303Z,983.53
2018-03-07T06:55:16.523Z,983.51
2018-03-07T06:56:31.244Z,983.53
2018-03-07T06:57:45.394Z,983.52
2018-03-07T06:59:00.069Z,983.51
2018-03-07T07:00:15.295Z,983.54
2018-03-07T07:01:30.246Z,983.59
2018-03-07T07:02:44.936Z,983.56
2018-03-07T07:03:59.060Z,983.56
2018-03-07T07:05:13.215Z,983.62
2018-03-07T07:06:28.493Z,983.68
2018-03-07T07:07:42.910Z,983.71
2018-03-07T07:08:57.341Z,983.66
2018-03-07T07:10:23.026Z,983.69
2018-03-07T07:11:37.526Z,983.69
2018-03-07T07:12:52.471Z,983.71
2018-03-07T07:14:06.886Z,983.66
2018-03-07T07:15:21.308Z,983.73
2018-03-07T07:16:36.331Z,983.76
2018-03-07T07:17:50.624Z,983.76
2018-03-07T07:19:04.794Z,983.79
2018-03-07T07:20:19.488Z,983.79
2018-03-07T07:21:34.103Z,983.83
2018-03-07T07:22:48.163Z,983.84
2018-03-07T07:24:03.065Z,983.78
2018-03-07T07:25:17.971Z,983.86
2018-03-07T07:26:31.900Z,983.85
2018-03-07T07:27:46.939Z,983.88
2018-03-07T07:29:01.363Z,983.86
2018-03-07T07:30:15.479Z,983.92
2018-03-07T07:31:29.701Z,983.9
2018-03-07T07:32:43.850Z,983.94
2018-03-07T07:33:58.658Z,984
2018-03-07T07:35:13.095Z,983.95
2018-03-07T07:36:27.857Z,983.95
2018-03-07T07:37:41.680Z,983.98
2018-03-07T07:38:56.079Z,983.97
2018-03-07T07:40:10.555Z,983.93
2018-03-07T07:41:25.333Z,984
2018-03-07T07:42:40.484Z,983.99
2018-03-07T07:43:55.148Z,983.99
2018-03-07T07:45:09.036Z,984.01
2018-03-07T07:46:23.481Z,984.03
2018-03-07T07:47:38.187Z,984.03
2018-03-07T07:48:52.889Z,984.05
2018-03-07T07:50:07.507Z,984.04
2018-03-07T07:51:22.747Z,984
2018-03-07T07:52:37.407Z,984.06
2018-03-07T07:53:52.308Z,984.05
2018-03-07T07:55:06.523Z,984.04
2018-03-07T07:56:20.979Z,984.04
2018-03-07T07:57:35.288Z,984.04
2018-03-07T07:58:49.620Z,984.05
2018-03-07T08:00:04.377Z,984.12
2018-03-07T08:01:18.837Z,984.17
2018-03-07T08:02:33.624Z,984.18
2018-03-07T08:03:48.315Z,984.11
2018-03-07T08:05:02.445Z,984.18
2018-03-07T08:06:17.127Z,984.19
2018-03-07T08:07:32.511Z,984.23
2018-03-07T08:08:46.909Z,984.18
2018-03-07T08:10:02.042Z,984.25
2018-03-07T08:11:16.711Z,984.18
2018-03-07T08:12:31.545Z,984.24
2018-03-07T08:13:46.479Z,984.27
2018-03-07T08:15:16.941Z,984.28
2018-03-07T08:16:32.074Z,984.28
2018-03-07T08:17:47.005Z,984.32
2018-03-07T08:19:02.249Z,984.28
2018-03-07T08:20:16.110Z,984.29
2018-03-07T08:21:31.605Z,984.39
2018-03-07T08:22:45.240Z,984.34
2018-03-07T08:23:59.924Z,984.33
2018-03-07T08:25:15.705Z,984.39
2018-03-07T08:26:29.570Z,984.42
2018-03-07T08:27:44.146Z,984.44
2018-03-07T08:28:58.575Z,984.48
2018-03-07T08:30:13.014Z,984.56
2018-03-07T08:31:27.215Z,984.51
2018-03-07T08:32:41.520Z,984.52
2018-03-07T08:33:56.229Z,984.57
2018-03-07T08:35:10.648Z,984.6
2018-03-07T08:36:25.634Z,984.62
2018-03-07T08:37:40.764Z,984.63
2018-03-07T08:38:55.726Z,984.62
2018-03-07T08:40:10.404Z,984.61
2018-03-07T08:41:25.132Z,984.66
2018-03-07T08:42:40.421Z,984.65
2018-03-07T08:43:55.133Z,984.61
2018-03-07T08:45:09.580Z,984.61
2018-03-07T08:46:23.750Z,984.64
2018-03-07T08:47:38.944Z,984.63
2018-03-07T08:48:54.530Z,984.6
2018-03-07T08:50:09.215Z,984.61
2018-03-07T08:51:23.909Z,984.64
2018-03-07T08:52:38.346Z,984.67
2018-03-07T08:53:52.764Z,984.65
2018-03-07T08:55:07.477Z,984.68
2018-03-07T08:56:22.160Z,984.73
2018-03-07T08:57:36.084Z,984.67
2018-03-07T08:58:50.257Z,984.73
2018-03-07T09:00:04.414Z,984.77
2018-03-07T09:01:19.073Z,984.73
2018-03-07T09:02:33.931Z,984.71
2018-03-07T09:03:48.410Z,984.75
2018-03-07T09:05:03.061Z,984.72
2018-03-07T09:06:16.929Z,984.73
2018-03-07T09:07:30.579Z,984.75
2018-03-07T09:08:45.597Z,984.77
2018-03-07T09:10:00.376Z,984.76
2018-03-07T09:11:15.368Z,984.71
2018-03-07T09:12:30.624Z,984.73
2018-03-07T09:13:45.230Z,984.8
2018-03-07T09:14:59.385Z,984.74
2018-03-07T09:16:13.283Z,984.7
2018-03-07T09:17:27.963Z,984.75
2018-03-07T09:18:43.298Z,984.76
2018-03-07T09:19:57.644Z,984.8
2018-03-07T09:21:12.217Z,984.74
2018-03-07T09:22:33.139Z,984.75
2018-03-07T09:23:48.352Z,984.79
2018-03-07T09:25:03.562Z,984.75
2018-03-07T09:26:18.515Z,984.76
2018-03-07T09:27:33.984Z,984.78
2018-03-07T09:28:48.984Z,984.82
2018-03-07T09:30:04.019Z,984.82
2018-03-07T09:31:18.775Z,984.81
2018-03-07T09:32:32.656Z,984.8
2018-03-07T09:33:47.262Z,984.83
2018-03-07T09:35:02.240Z,984.83
2018-03-07T09:36:16.336Z,984.76
2018-03-07T09:37:31.031Z,984.79
2018-03-07T09:38:45.157Z,984.76
2018-03-07T09:39:59.556Z,984.8
2018-03-07T09:41:13.682Z,984.74
2018-03-07T09:42:27.827Z,984.82
2018-03-07T09:43:42.958Z,984.71
2018-03-07T09:44:57.397Z,984.83
2018-03-07T09:46:12.040Z,984.79
2018-03-07T09:47:26.734Z,984.86
2018-03-07T09:48:41.409Z,984.85
2018-03-07T09:49:56.791Z,984.78
2018-03-07T09:51:11.461Z,984.84
2018-03-07T09:52:26.212Z,984.82
2018-03-07T09:53:40.076Z,984.79
2018-03-07T09:54:55.169Z,984.82
2018-03-07T09:56:10.472Z,984.83
2018-03-07T09:57:25.504Z,984.8
2018-03-07T09:58:40.281Z,984.82
2018-03-07T09:59:55.106Z,984.8
2018-03-07T10:01:09.792Z,984.73
2018-03-07T10:02:24.685Z,984.82
2018-03-07T10:03:39.358Z,984.77
2018-03-07T10:04:54.738Z,984.81
2018-03-07T10:06:08.623Z,984.82
2018-03-07T10:07:23.998Z,984.79
2018-03-07T10:08:39.260Z,984.85
2018-03-07T10:09:54.298Z,984.8
2018-03-07T10:11:08.985Z,984.77
2018-03-07T10:12:23.699Z,984.78
2018-03-07T10:13:38.392Z,984.84
2018-03-07T10:14:53.224Z,984.75
2018-03-07T10:16:07.997Z,984.8
2018-03-07T10:17:22.699Z,984.76
2018-03-07T10:18:37.120Z,984.82
2018-03-07T10:19:51.685Z,984.83
2018-03-07T10:21:06.152Z,984.72
2018-03-07T10:22:21.115Z,984.78
2018-03-07T10:23:35.799Z,984.76
2018-03-07T10:24:50.618Z,984.8
2018-03-07T10:26:05.804Z,984.76
2018-03-07T10:27:20.472Z,984.8
2018-03-07T10:28:35.262Z,984.87
2018-03-07T10:29:49.465Z,984.82
2018-03-07T10:31:04.606Z,984.85
2018-03-07T10:32:19.426Z,984.87
2018-03-07T10:33:33.862Z,984.87
2018-03-07T10:34:48.550Z,984.86
2018-03-07T10:36:03.329Z,984.95
2018-03-07T10:37:17.245Z,984.92
2018-03-07T10:38:32.194Z,984.93
2018-03-07T10:39:46.877Z,984.99
2018-03-07T10:41:01.786Z,984.97
2018-03-07T10:42:16.733Z,985.06
2018-03-07T10:43:30.608Z,984.98
2018-03-07T10:44:45.537Z,985.02
2018-03-07T10:46:01.254Z,985.05
2018-03-07T10:47:15.683Z,985.02
2018-03-07T10:48:30.083Z,984.98
2018-03-07T10:49:44.515Z,984.99
2018-03-07T10:50:58.874Z,985.01
2018-03-07T10:52:14.111Z,985.02
2018-03-07T10:53:29.082Z,985.08
2018-03-07T10:54:44.065Z,985.03
2018-03-07T10:55:58.654Z,985.04
2018-03-07T10:57:13.542Z,985.09
2018-03-07T10:58:28.877Z,985.02
2018-03-07T10:59:44.289Z,985.03
2018-03-07T11:00:58.861Z,985.03
2018-03-07T11:02:12.985Z,984.98
2018-03-07T11:03:29.586Z,984.91
2018-03-07T11:04:44.421Z,985.06
2018-03-07T11:05:59.842Z,985.02
2018-03-07T11:07:14.523Z,985.04
2018-03-07T11:08:28.980Z,985.07
2018-03-07T11:09:43.677Z,985.13
2018-03-07T11:10:58.402Z,985.1
2018-03-07T11:12:12.487Z,985.09
2018-03-07T11:13:27.463Z,985.07
2018-03-07T11:14:42.427Z,985.07
2018-03-07T11:15:56.851Z,985.09
2018-03-07T11:17:12.161Z,985.02
2018-03-07T11:18:26.929Z,985.07
2018-03-07T11:19:41.253Z,985.1
2018-03-07T11:20:55.704Z,985.1
2018-03-07T11:22:10.368Z,985.04
2018-03-07T11:23:25.340Z,985.08
2018-03-07T11:24:39.248Z,985.11
2018-03-07T11:25:54.367Z,985.17
2018-03-07T11:27:09.156Z,985.06
2018-03-07T11:28:23.824Z,985.09
2018-03-07T11:29:38.638Z,985.16
2018-03-07T11:30:53.569Z,985.16
2018-03-07T11:32:08.069Z,985.15
2018-03-07T11:33:22.760Z,985.08
2018-03-07T11:34:37.702Z,985.13
2018-03-07T11:35:52.205Z,985.18
2018-03-07T11:37:07.353Z,985.16
2018-03-07T11:38:21.771Z,985.19
2018-03-07T11:39:36.409Z,985.21
2018-03-07T11:40:50.848Z,985.15
2018-03-07T11:42:05.745Z,985.08
2018-03-07T11:43:20.146Z,985.13
2018-03-07T11:44:34.065Z,985.16
2018-03-07T11:45:48.972Z,985.14
2018-03-07T11:47:03.412Z,985.16
2018-03-07T11:48:17.833Z,985.14
2018-03-07T11:49:32.538Z,985.19
2018-03-07T11:50:46.652Z,985.19
2018-03-07T11:52:01.076Z,985.16
2018-03-07T11:53:16.122Z,985.24
2018-03-07T11:54:30.864Z,985.21
2018-03-07T11:55:45.276Z,985.15
2018-03-07T11:56:59.959Z,985.16
2018-03-07T11:58:14.755Z,985.2
2018-03-07T11:59:28.921Z,985.18
2018-03-07T12:00:43.928Z,985.23
2018-03-07T12:01:58.112Z,985.15
2018-03-07T12:03:13.105Z,985.13
2018-03-07T12:04:28.327Z,985.16
2018-03-07T12:05:43.557Z,985.16
2018-03-07T12:06:58.783Z,985.05
2018-03-07T12:08:13.286Z,985.2
2018-03-07T12:09:27.956Z,985.1
2018-03-07T12:10:42.150Z,985.18
2018-03-07T12:11:56.333Z,985.09
2018-03-07T12:13:11.254Z,985.14
2018-03-07T12:14:25.990Z,985.09
2018-03-07T12:15:40.668Z,985.12
2018-03-07T12:16:55.818Z,985.11
2018-03-07T12:18:10.752Z,985.12
2018-03-07T12:19:25.997Z,985.05
2018-03-07T12:20:40.186Z,985.02
2018-03-07T12:21:55.601Z,985.08
2018-03-07T12:23:10.727Z,984.89
2018-03-07T12:24:25.693Z,985.01
2018-03-07T12:25:40.131Z,985
2018-03-07T12:26:54.324Z,985.05
2018-03-07T12:28:08.452Z,985.07
2018-03-07T12:29:22.959Z,985.04
2018-03-07T12:30:37.673Z,985.03
2018-03-07T12:31:52.090Z,985.09
2018-03-07T12:33:06.821Z,984.95
2018-03-07T12:34:21.566Z,985.04
2018-03-07T12:35:36.666Z,985.02
2018-03-07T12:37:11.764Z,985.01
2018-03-07T12:38:27.650Z,985.12
2018-03-07T12:39:41.832Z,985.11
2018-03-07T12:40:56.522Z,985.11
2018-03-07T12:42:10.166Z,985.09
2018-03-07T12:43:25.421Z,985.03
2018-03-07T12:44:39.646Z,985.12
2018-03-07T12:45:54.376Z,985.08
2018-03-07T12:47:09.102Z,985.06
2018-03-07T12:48:23.600Z,985
2018-03-07T12:49:38.988Z,984.96
2018-03-07T12:50:53.965Z,985.07
2018-03-07T12:52:09.159Z,984.94
2018-03-07T12:53:23.050Z,984.99
2018-03-07T12:54:37.897Z,985.07
2018-03-07T12:55:52.632Z,985.06
2018-03-07T12:57:08.043Z,985.05
2018-03-07T12:58:21.975Z,985.1
2018-03-07T12:59:37.181Z,985.04
2018-03-07T13:00:51.378Z,984.98
2018-03-07T13:02:06.168Z,985.05
2018-03-07T13:03:20.852Z,985
2018-03-07T13:04:35.219Z,985.02
2018-03-07T13:05:49.399Z,985.12
2018-03-07T13:07:03.792Z,984.98
2018-03-07T13:08:19.821Z,985.03
2018-03-07T13:09:52.298Z,984.94
2018-03-07T13:11:07.258Z,985.05
2018-03-07T13:12:21.943Z,985.02
2018-03-07T13:13:36.181Z,985.07
2018-03-07T13:14:51.093Z,985.04
2018-03-07T13:16:11.266Z,985.11
2018-03-07T13:17:26.658Z,985.14
2018-03-07T13:18:41.549Z,985.14
2018-03-07T13:19:56.580Z,985.15
2018-03-07T13:21:11.451Z,985.2
2018-03-07T13:22:26.403Z,985.14
2018-03-07T13:23:40.547Z,985.15
2018-03-07T13:24:55.150Z,985.15
2018-03-07T13:26:09.318Z,985.02
2018-03-07T13:27:24.526Z,985.21
2018-03-07T13:28:38.969Z,985.2
2018-03-07T13:29:54.225Z,985.24
2018-03-07T13:31:08.933Z,985.1
2018-03-07T13:32:24.176Z,985.25
2018-03-07T13:33:38.038Z,985.24
2018-03-07T13:34:52.776Z,985.3
2018-03-07T13:36:06.979Z,985.19
2018-03-07T13:37:21.922Z,985.09
2018-03-07T13:38:36.310Z,985.21
2018-03-07T13:39:50.574Z,985.21
2018-03-07T13:41:05.070Z,985.25
2018-03-07T13:42:50.992Z,985.17
2018-03-07T13:44:05.319Z,985.26
2018-03-07T13:45:20.252Z,985.27
2018-03-07T13:46:35.146Z,985.31
2018-03-07T13:47:49.441Z,985.23
2018-03-07T13:49:04.383Z,985.32
2018-03-07T13:50:20.125Z,985.3
2018-03-07T13:51:34.824Z,985.35
2018-03-07T13:52:49.505Z,985.39
2018-03-07T13:54:03.697Z,985.37
2018-03-07T13:55:18.377Z,985.44
2018-03-07T13:56:33.374Z,985.4
2018-03-07T13:57:47.992Z,985.42
2018-03-07T13:59:02.500Z,985.36
2018-03-07T14:00:17.161Z,985.41
2018-03-07T14:01:31.551Z,985.37
2018-03-07T14:02:46.049Z,985.39
2018-03-07T14:04:00.448Z,985.42
2018-03-07T14:05:15.204Z,985.2
2018-03-07T14:06:29.931Z,985.39
2018-03-07T14:07:44.378Z,985.45
2018-03-07T14:08:58.796Z,985.42
2018-03-07T14:10:13.151Z,985.39
2018-03-07T14:11:27.320Z,985.19
2018-03-07T14:12:42.253Z,985.32
2018-03-07T14:13:56.393Z,985.32
2018-03-07T14:15:11.971Z,985.31
2018-03-07T14:16:26.093Z,985.29
2018-03-07T14:17:40.498Z,985.31
2018-03-07T14:18:54.535Z,985.28
2018-03-07T14:20:09.673Z,985.29
2018-03-07T14:21:24.633Z,985.31
2018-03-07T14:22:39.573Z,985.34
2018-03-07T14:23:53.999Z,985.31
2018-03-07T14:25:08.366Z,985.34
2018-03-07T14:26:23.006Z,985.3
2018-03-07T14:27:37.810Z,985.3
2018-03-07T14:28:52.347Z,985.34
2018-03-07T14:30:06.789Z,985.34
2018-03-07T14:31:21.552Z,985.33
2018-03-07T14:32:36.219Z,985.36
2018-03-07T14:33:50.945Z,985.33
2018-03-07T14:35:05.417Z,985.33
2018-03-07T14:36:20.339Z,985.29
2018-03-07T14:37:35.294Z,985.28
2018-03-07T14:38:49.745Z,985.33
2018-03-07T14:40:04.945Z,985.33
2018-03-07T14:41:19.453Z,985.32
2018-03-07T14:42:33.384Z,985.27
2018-03-07T14:43:48.241Z,985.37
2018-03-07T14:45:02.939Z,985.38
2018-03-07T14:46:17.213Z,985.29
2018-03-07T14:47:31.372Z,985.39
2018-03-07T14:49:01.647Z,985.38
2018-03-07T14:50:15.896Z,985.35
2018-03-07T14:51:30.582Z,985.42
2018-03-07T14:52:44.707Z,985.4
2018-03-07T14:53:59.101Z,985.38
2018-03-07T14:55:13.767Z,985.44
2018-03-07T14:56:28.729Z,985.39
2018-03-07T14:57:43.415Z,985.43
2018-03-07T14:58:57.823Z,985.39
2018-03-07T15:00:12.871Z,985.33
2018-03-07T15:01:27.849Z,985.36
2018-03-07T15:02:42.334Z,985.32
2018-03-07T15:03:56.739Z,985.39
2018-03-07T15:05:11.164Z,985.32
2018-03-07T15:06:25.747Z,985.43
2018-03-07T15:07:40.191Z,985.43
2018-03-07T15:08:55.181Z,985.36
2018-03-07T15:10:10.406Z,985.3
2018-03-07T15:11:24.212Z,985.37
2018-03-07T15:12:38.139Z,985.42
2018-03-07T15:13:52.073Z,985.37
2018-03-07T15:15:07.076Z,985.38
2018-03-07T15:16:21.916Z,985.36
2018-03-07T15:17:36.372Z,985.36
2018-03-07T15:18:51.053Z,985.38
2018-03-07T15:20:05.463Z,985.43
2018-03-07T15:21:49.806Z,985.34
2018-03-07T15:23:04.946Z,985.39
2018-03-07T15:24:19.379Z,985.38
2018-03-07T15:25:34.547Z,985.39
2018-03-07T15:26:49.356Z,985.33
2018-03-07T15:28:04.246Z,985.36
2018-03-07T15:29:19.219Z,985.34
2018-03-07T15:30:33.352Z,985.38
2018-03-07T15:31:47.772Z,985.32
2018-03-07T15:33:02.137Z,985.36
2018-03-07T15:34:16.816Z,985.24
2018-03-07T15:35:31.563Z,985.33
2018-03-07T15:36:46.235Z,985.38
2018-03-07T15:38:01.442Z,985.41
2018-03-07T15:39:16.127Z,985.42
2018-03-07T15:40:30.554Z,985.37
2018-03-07T15:41:45.558Z,985.42
2018-03-07T15:43:00.714Z,985.37
2018-03-07T15:44:14.858Z,985.37
2018-03-07T15:45:30.052Z,985.54
2018-03-07T15:46:44.505Z,985.49
2018-03-07T15:47:59.772Z,985.45